Time;durP1;ratioP1;P1;durP2;ratioP2;P2;SDS_P1;SDS_P2;PMS_P1;PMS_P2;Temp;Humidity;BMP_temperature;BMP_pressure;BME280_temperature;BME280_humidity;BME280_pressure;Samples;Min_cycle;Max_cycle;Signal;HPM_P1;HPM_P2
2022/12/28 00:01:55;;;;;;;7.50;3.70;;;;;;;4.83;100.00;101484.41;5073739;28;20053;-51
2022/12/28 00:04:24;;;;;;;8.18;3.90;;;;;;;4.82;100.00;101482.69;5073701;28;20152;-53
2022/12/28 00:06:52;;;;;;;10.32;3.45;;;;;;;4.86;100.00;101483.47;5073530;28;20089;-52
2022/12/28 00:09:20;;;;;;;13.27;3.40;;;;;;;4.88;100.00;101469.50;5073291;28;20098;-53
2022/12/28 00:11:48;;;;;;;9.02;3.28;;;;;;;4.85;100.00;101446.13;5072760;28;20044;-54
2022/12/28 00:14:17;;;;;;;12.02;3.78;;;;;;;4.84;100.00;101452.25;5070432;28;20127;-55
2022/12/28 00:16:46;;;;;;;8.73;3.28;;;;;;;4.82;100.00;101438.41;5068263;28;20049;-54
2022/12/28 00:19:16;;;;;;;9.25;3.53;;;;;;;4.81;100.00;101434.06;5073215;28;20056;-54
2022/12/28 00:21:46;;;;;;;11.02;4.30;;;;;;;4.85;100.00;101421.81;5070708;28;20044;-54
2022/12/28 00:24:18;;;;;;;8.02;3.42;;;;;;;4.88;100.00;101414.75;5069056;28;20067;-53
2022/12/28 00:26:46;;;;;;;;;;;;;;;4.89;100.00;101411.25;5073369;28;20391;-57
2022/12/28 00:29:15;;;;;;;9.13;3.47;;;;;;;4.84;100.00;101407.94;5072683;28;19956;-52
2022/12/28 00:31:44;;;;;;;11.40;3.70;;;;;;;4.85;100.00;101412.25;5072559;28;20082;-52
2022/12/28 00:34:14;;;;;;;8.75;3.58;;;;;;;4.82;100.00;101404.50;5072854;28;20136;-54
2022/12/28 00:36:43;;;;;;;11.05;4.55;;;;;;;4.84;100.00;101397.50;5069671;28;20053;-54
2022/12/28 00:39:31;;;;;;;10.93;3.60;;;;;;;4.86;100.00;101395.69;5070420;28;20082;-53
2022/12/28 00:41:59;;;;;;;12.05;4.68;;;;;;;4.89;100.00;101382.59;5072934;28;20419;-54
2022/12/28 00:44:28;;;;;;;8.30;3.35;;;;;;;4.90;100.00;101375.59;5072513;28;20048;-55
2022/12/28 00:46:57;;;;;;;9.07;3.25;;;;;;;4.89;100.00;101371.28;5073071;28;20513;-55
2022/12/28 00:49:26;;;;;;;7.97;3.08;;;;;;;4.91;100.00;101362.50;5072736;28;20052;-55
2022/12/28 00:51:54;;;;;;;8.05;3.72;;;;;;;4.97;100.00;101358.00;5072730;28;20483;-54
2022/12/28 00:54:22;;;;;;;9.70;3.22;;;;;;;4.94;100.00;101352.91;5072806;28;20106;-55
2022/12/28 00:56:50;;;;;;;10.93;3.20;;;;;;;4.99;100.00;101350.97;5072950;28;20048;-55
2022/12/28 00:59:19;;;;;;;6.32;2.88;;;;;;;4.99;100.00;101345.75;5072698;28;20094;-55
2022/12/28 01:01:47;;;;;;;8.65;3.20;;;;;;;5.00;100.00;101339.66;5072447;28;20040;-55
2022/12/28 01:04:15;;;;;;;11.07;3.80;;;;;;;5.00;100.00;101343.09;5072723;28;20079;-55
2022/12/28 01:06:44;;;;;;;8.48;3.47;;;;;;;5.03;100.00;101340.41;5072558;28;20044;-53
2022/12/28 01:09:13;;;;;;;10.18;3.60;;;;;;;5.02;100.00;101350.91;5072685;28;20499;-55
2022/12/28 01:11:41;;;;;;;9.55;3.63;;;;;;;5.01;100.00;101339.59;5072289;28;20048;-55
2022/12/28 01:14:09;;;;;;;8.52;3.15;;;;;;;5.04;100.00;101336.03;5072474;28;20558;-55
2022/12/28 01:16:37;;;;;;;9.10;3.58;;;;;;;5.07;100.00;101333.31;5072030;28;20045;-56
2022/12/28 01:19:07;;;;;;;7.22;3.20;;;;;;;5.11;100.00;101326.25;5069529;28;20045;-55
2022/12/28 01:21:36;;;;;;;7.63;3.38;;;;;;;5.14;100.00;101315.69;5070849;28;20446;-56
2022/12/28 01:24:07;;;;;;;10.77;4.03;;;;;;;5.13;100.00;101314.88;5072508;28;20075;-54
2022/12/28 01:26:36;;;;;;;8.95;3.47;;;;;;;5.16;100.00;101314.75;5072344;28;20054;-55
2022/12/28 01:29:04;;;;;;;8.98;3.75;;;;;;;5.22;100.00;101298.91;5069432;28;20045;-56
2022/12/28 01:31:33;;;;;;;9.52;3.63;;;;;;;5.25;100.00;101283.13;5067444;28;20044;-56
2022/12/28 01:34:01;;;;;;;9.93;3.60;;;;;;;5.27;100.00;101300.50;5072551;28;20040;-56
2022/12/28 01:36:31;;;;;;;8.27;3.72;;;;;;;5.34;100.00;101275.88;5072344;28;20499;-56
2022/12/28 01:39:01;;;;;;;9.40;3.83;;;;;;;5.39;100.00;101284.41;5074577;28;20060;-57
2022/12/28 01:41:37;;;;;;;7.10;3.78;;;;;;;5.36;100.00;101272.31;5073705;28;20041;-56
2022/12/28 01:44:43;;;;;;;9.05;3.92;;;;;;;5.43;100.00;101270.34;5076278;28;20530;-54
2022/12/28 01:47:15;;;;;;;7.57;3.55;;;;;;;5.44;100.00;101263.34;5076446;28;20425;-57
2022/12/28 01:49:49;;;;;;;10.98;3.70;;;;;;;5.47;100.00;101256.28;5076191;28;20475;-55
2022/12/28 01:52:22;;;;;;;11.38;3.85;;;;;;;5.48;100.00;101272.75;5076149;28;20098;-57
2022/12/28 01:54:54;;;;;;;10.40;4.00;;;;;;;5.51;100.00;101257.84;5075160;28;20461;-56
2022/12/28 01:57:29;;;;;;;9.50;4.20;;;;;;;5.52;100.00;101256.97;5072254;28;20048;-55
2022/12/28 02:00:01;;;;;;;10.35;4.20;;;;;;;5.52;100.00;101269.13;5075453;28;20553;-56
2022/12/28 02:02:30;;;;;;;9.13;3.63;;;;;;;5.54;100.00;101242.06;5076020;28;20434;-56
2022/12/28 02:05:00;;;;;;;10.85;4.10;;;;;;;5.60;100.00;101261.88;5075909;28;20044;-56
2022/12/28 02:07:37;;;;;;;10.57;4.13;;;;;;;5.63;100.00;101245.25;5075680;28;20056;-57
2022/12/28 02:10:08;;;;;;;9.23;3.70;;;;;;;5.65;100.00;101223.41;5075733;28;20550;-57
2022/12/28 02:12:59;;;;;;;12.18;4.07;;;;;;;5.69;100.00;101224.16;5074487;28;20064;-58
2022/12/28 02:15:28;;;;;;;7.80;4.05;;;;;;;5.69;100.00;101234.59;5075769;28;20570;-57
2022/12/28 02:17:57;;;;;;;9.63;3.53;;;;;;;5.73;100.00;101215.28;5075589;28;20052;-57
2022/12/28 02:20:31;;;;;;;7.22;3.38;;;;;;;5.73;100.00;101210.06;5075718;28;20581;-57
2022/12/28 02:23:31;;;;;;;9.48;3.30;;;;;;;5.74;100.00;101206.56;5075753;28;20068;-56
2022/12/28 02:26:33;;;;;;;9.38;3.53;;;;;;;5.73;100.00;101179.59;5055852;28;20056;-56
2022/12/28 02:29:47;;;;;;;7.97;3.40;;;;;;;5.73;100.00;101176.97;5074348;28;20053;-57
2022/12/28 02:32:30;;;;;;;8.77;3.50;;;;;;;5.78;100.00;101165.50;5073999;28;20052;-58
2022/12/28 02:35:03;;;;;;;8.50;3.15;;;;;;;5.79;100.00;101164.59;5072421;28;20379;-56
2022/12/28 02:37:36;;;;;;;8.65;3.83;;;;;;;5.80;100.00;101161.94;5074648;28;20044;-55
2022/12/28 02:40:09;;;;;;;10.10;3.20;;;;;;;5.81;100.00;101160.16;5075018;28;20056;-56
2022/12/28 02:42:39;;;;;;;10.75;3.67;;;;;;;5.80;100.00;101151.50;5074625;28;20507;-56
2022/12/28 02:51:21;;;;;;;10.75;3.70;;;;;;;5.87;100.00;101141.66;5073484;28;20105;-55
2022/12/28 02:56:05;;;;;;;7.45;3.47;;;;;;;5.82;100.00;101147.06;5072264;28;20056;-54
2022/12/28 02:57:04;;;;;;;8.65;3.85;;;;;;;5.84;100.00;101145.22;5074893;28;20079;-53
2022/12/28 02:59:48;;;;;;;9.05;3.70;;;;;;;5.85;100.00;101133.88;5075005;28;20530;-55
2022/12/28 03:02:35;;;;;;;9.63;3.72;;;;;;;5.83;100.00;101133.09;5074893;28;20094;-49
2022/12/28 03:05:14;;;;;;;8.05;3.80;;;;;;;5.77;100.00;101130.75;5075251;28;20131;-53
2022/12/28 03:10:48;;;;;;;9.32;4.03;;;;;;;5.70;100.00;101118.81;5074799;28;20048;-49
2022/12/28 03:16:12;;;;;;;9.70;4.32;;;;;;;5.65;100.00;101105.97;5072839;28;20484;-52
2022/12/28 03:32:48;;;;;;;10.05;4.78;;;;;;;5.68;100.00;101089.34;5074107;28;20048;-50
2022/12/28 03:35:21;;;;;;;13.07;5.45;;;;;;;5.68;100.00;101084.97;5073845;28;20048;-52
2022/12/28 03:37:56;;;;;;;8.32;5.05;;;;;;;5.71;100.00;101079.66;5070812;28;20544;-51
2022/12/28 03:40:31;;;;;;;10.48;5.15;;;;;;;5.73;100.00;101079.56;5070133;28;20048;-53
2022/12/28 03:45:54;;;;;;;11.20;5.45;;;;;;;5.76;100.00;101074.22;5073567;28;20465;-49
2022/12/28 03:48:23;;;;;;;9.68;5.25;;;;;;;5.75;100.00;101069.91;5073771;28;20064;-47
2022/12/28 03:50:54;;;;;;;10.32;5.97;;;;;;;5.76;100.00;101071.63;5069969;28;20499;-48
2022/12/28 03:53:29;;;;;;;11.55;5.43;;;;;;;5.78;100.00;101064.59;5070369;28;20563;-49
2022/12/28 03:56:06;;;;;;;11.18;6.00;;;;;;;5.79;100.00;101071.47;5073630;28;20041;-47
2022/12/28 03:58:34;;;;;;;10.70;5.70;;;;;;;5.83;100.00;101054.78;5073546;28;20057;-51
2022/12/28 04:01:03;;;;;;;12.63;5.43;;;;;;;5.80;100.00;101060.13;5072790;28;20051;-52
2022/12/28 04:03:31;;;;;;;10.73;6.18;;;;;;;5.81;100.00;101056.63;5073513;28;20052;-52
2022/12/28 04:06:01;;;;;;;10.88;5.75;;;;;;;5.84;100.00;101046.03;5073624;28;20376;-51
2022/12/28 04:08:29;;;;;;;10.30;6.05;;;;;;;5.86;100.00;101038.13;5073626;28;20072;-51
2022/12/28 04:10:58;;;;;;;11.45;5.82;;;;;;;5.87;100.00;101029.41;5070631;28;20143;-51
2022/12/28 04:13:29;;;;;;;11.18;6.13;;;;;;;5.93;100.00;101024.78;5069812;28;20123;-52
2022/12/28 04:15:59;;;;;;;9.52;5.30;;;;;;;5.93;100.00;101019.56;5073589;28;20048;-51
2022/12/28 04:18:27;;;;;;;12.05;5.88;;;;;;;5.91;100.00;101016.13;5072045;28;20457;-50
2022/12/28 04:20:55;;;;;;;9.93;5.85;;;;;;;6.00;100.00;101009.72;5073324;28;20040;-51
2022/12/28 04:23:25;;;;;;;11.88;6.10;;;;;;;5.99;100.00;101013.25;5073166;28;20353;-52
2022/12/28 04:25:58;;;;;;;12.45;6.22;;;;;;;6.03;100.00;101029.63;5073141;28;20052;-51
2022/12/28 04:28:30;;;;;;;12.77;6.15;;;;;;;6.03;100.00;101032.25;5072989;28;20040;-53
2022/12/28 04:30:59;;;;;;;12.68;6.78;;;;;;;6.04;100.00;101023.47;5072872;28;20127;-53
2022/12/28 04:33:27;;;;;;;11.02;6.03;;;;;;;6.07;100.00;101028.59;5071026;28;20048;-52
2022/12/28 04:36:05;;;;;;;10.93;6.03;;;;;;;6.06;100.00;101025.09;5069636;28;20507;-50
2022/12/28 04:38:36;;;;;;;11.02;6.53;;;;;;;6.09;100.00;101024.13;5072067;28;20048;-49
2022/12/28 04:41:06;;;;;;;9.73;5.82;;;;;;;6.13;100.00;101023.09;5072877;28;20052;-50
2022/12/28 04:43:34;;;;;;;11.07;6.95;;;;;;;6.14;100.00;101027.41;5072847;28;20547;-48
2022/12/28 04:46:06;;;;;;;11.48;5.82;;;;;;;6.15;100.00;101026.50;5069571;28;20440;-50
2022/12/28 04:48:34;;;;;;;11.07;6.30;;;;;;;6.17;100.00;101016.81;5068482;28;20106;-51
2022/12/28 04:51:07;;;;;;;11.10;6.35;;;;;;;6.19;100.00;101003.69;5072174;28;20048;-53
2022/12/28 04:53:41;;;;;;;14.55;6.65;;;;;;;6.19;100.00;101004.53;5070883;28;20140;-52
2022/12/28 04:56:11;;;;;;;10.57;6.90;;;;;;;6.18;100.00;101002.84;5072516;28;20080;-52
2022/12/28 04:58:40;;;;;;;13.23;7.03;;;;;;;6.21;100.00;100999.25;5072829;28;20436;-51
2022/12/28 05:01:10;;;;;;;11.10;6.63;;;;;;;6.24;100.00;100994.75;5073092;28;20080;-56
2022/12/28 05:03:40;;;;;;;11.80;6.95;;;;;;;6.26;100.00;100994.69;5072616;28;20040;-48
2022/12/28 05:06:11;;;;;;;11.25;6.80;;;;;;;6.25;100.00;100996.41;5071498;28;20419;-50
2022/12/28 05:08:42;;;;;;;10.55;5.90;;;;;;;6.34;100.00;100983.88;5067048;28;20052;-51
2022/12/28 05:11:13;;;;;;;11.70;6.57;;;;;;;6.38;100.00;100988.91;5070359;28;20048;-51
2022/12/28 05:13:42;;;;;;;10.07;6.60;;;;;;;6.34;100.00;100987.34;5072325;28;20040;-51
2022/12/28 05:16:11;;;;;;;12.75;6.80;;;;;;;6.37;100.00;100981.13;5071564;28;20395;-48
2022/12/28 05:18:39;;;;;;;11.30;6.07;;;;;;;6.37;100.00;100987.19;5072419;28;20048;-52
2022/12/28 05:21:09;;;;;;;9.68;6.90;;;;;;;6.43;100.00;100979.09;5072448;28;20048;-50
2022/12/28 05:23:38;;;;;;;11.90;7.05;;;;;;;6.43;100.00;100986.94;5072076;28;20049;-55
2022/12/28 05:26:11;;;;;;;11.63;6.70;;;;;;;6.40;100.00;100981.81;5069307;28;20044;-54
2022/12/28 05:28:40;;;;;;;11.32;6.38;;;;;;;6.42;100.00;100982.63;5067363;28;20571;-54
2022/12/28 05:31:12;;;;;;;12.20;6.65;;;;;;;6.43;100.00;100970.38;5072366;28;20052;-54
2022/12/28 05:33:41;;;;;;;11.55;6.25;;;;;;;6.48;100.00;100971.03;5069936;28;20534;-56
2022/12/28 05:36:11;;;;;;;13.40;7.00;;;;;;;6.47;100.00;100981.56;5068575;28;20053;-56
2022/12/28 05:38:40;;;;;;;17.23;6.38;;;;;;;6.52;100.00;100976.97;5071637;28;20379;-56
2022/12/28 05:41:13;;;;;;;10.13;6.30;;;;;;;6.52;100.00;100980.44;5072156;28;20076;-55
2022/12/28 05:43:42;;;;;;;13.18;7.13;;;;;;;6.53;100.00;100979.53;5072605;28;20044;-57
2022/12/28 05:46:12;;;;;;;11.32;6.65;;;;;;;6.56;100.00;100981.16;5072201;28;20048;-50
2022/12/28 05:48:42;;;;;;;12.60;7.30;;;;;;;6.55;100.00;100975.06;5070335;28;20491;-53
2022/12/28 05:51:13;;;;;;;14.25;6.38;;;;;;;6.56;100.00;100968.06;5069063;28;20045;-50
2022/12/28 05:53:42;;;;;;;12.10;6.00;;;;;;;6.60;100.00;100975.69;5071194;28;20043;-52
2022/12/28 05:56:14;;;;;;;12.40;6.38;;;;;;;6.60;100.00;100977.47;5068747;28;20048;-50
2022/12/28 05:58:43;;;;;;;11.90;6.22;;;;;;;6.62;100.00;100967.78;5069727;28;20060;-49
2022/12/28 06:01:13;;;;;;;12.93;6.40;;;;;;;6.66;100.00;100969.31;5072063;28;20048;-48
2022/12/28 06:03:42;;;;;;;9.32;6.00;;;;;;;6.68;100.00;100974.47;5072042;28;20070;-49
2022/12/28 06:06:11;;;;;;;11.38;6.22;;;;;;;6.71;100.00;100963.91;5071629;28;20053;-48
2022/12/28 06:08:41;;;;;;;12.43;5.82;;;;;;;6.70;100.00;100959.59;5070769;28;20052;-49
2022/12/28 06:11:12;;;;;;;11.65;5.75;;;;;;;6.76;100.00;100961.91;5067955;28;20059;-50
2022/12/28 06:13:42;;;;;;;11.23;5.70;;;;;;;6.79;100.00;100942.59;5068857;28;20483;-51
2022/12/28 06:16:12;;;;;;;10.48;5.15;;;;;;;6.77;100.00;100948.75;5066476;28;20045;-49
2022/12/28 06:18:41;;;;;;;11.40;5.63;;;;;;;6.80;100.00;100941.69;5068304;28;20047;-53
2022/12/28 06:21:14;;;;;;;8.43;4.93;;;;;;;6.81;100.00;100941.63;5071847;28;20047;-51
2022/12/28 06:23:43;;;;;;;8.68;4.72;;;;;;;6.84;100.00;100943.25;5073756;28;20044;-49
2022/12/28 06:26:13;;;;;;;9.13;5.20;;;;;;;6.85;100.00;100945.78;5075497;28;20119;-51
2022/12/28 06:28:43;;;;;;;8.52;5.38;;;;;;;6.85;100.00;100937.94;5075397;28;20045;-52
2022/12/28 06:31:13;;;;;;;11.10;5.03;;;;;;;6.89;100.00;100931.63;5069503;28;20053;-52
2022/12/28 06:33:42;;;;;;;9.00;4.72;;;;;;;6.92;100.00;100934.09;5071986;28;20054;-51
2022/12/28 06:36:12;;;;;;;10.18;4.80;;;;;;;6.93;100.00;100942.81;5075176;28;20080;-51
2022/12/28 06:38:47;;;;;;;9.88;5.03;;;;;;;6.97;100.00;100941.75;5075524;28;20040;-53
2022/12/28 06:41:17;;;;;;;10.82;5.00;;;;;;;6.97;100.00;100936.50;5074994;28;20507;-52
2022/12/28 06:43:48;;;;;;;8.77;5.10;;;;;;;6.99;100.00;100942.50;5074486;28;20483;-49
2022/12/28 06:46:17;;;;;;;8.02;4.97;;;;;;;6.98;100.00;100947.81;5075158;28;20049;-48
2022/12/28 06:48:46;;;;;;;10.07;4.88;;;;;;;6.97;100.00;100938.25;5074987;28;20048;-49
2022/12/28 06:51:16;;;;;;;8.70;4.57;;;;;;;6.98;100.00;100945.19;5074986;28;20044;-50
2022/12/28 06:53:45;;;;;;;7.80;4.45;;;;;;;7.02;100.00;100954.56;5074894;28;20041;-48
2022/12/28 06:56:15;;;;;;;8.70;4.40;;;;;;;7.08;100.00;100952.50;5075192;28;20565;-51
2022/12/28 06:58:44;;;;;;;7.32;4.38;;;;;;;7.06;100.00;100949.13;5073812;28;20533;-55
2022/12/28 07:01:16;;;;;;;8.63;4.47;;;;;;;7.04;100.00;100939.69;5070720;28;20048;-56
2022/12/28 07:03:47;;;;;;;8.77;4.38;;;;;;;7.07;100.00;100939.50;5073494;28;20072;-55
2022/12/28 07:06:16;;;;;;;9.30;4.30;;;;;;;7.08;100.00;100933.38;5072548;28;20049;-56
2022/12/28 07:08:45;;;;;;;8.50;4.50;;;;;;;7.10;100.00;100937.59;5071135;28;20086;-56
2022/12/28 07:11:15;;;;;;;8.55;4.60;;;;;;;7.15;100.00;100926.06;5074950;28;20144;-56
2022/12/28 07:13:44;;;;;;;10.38;4.43;;;;;;;7.15;100.00;100923.47;5074766;28;20422;-56
2022/12/28 07:16:15;;;;;;;9.18;4.40;;;;;;;7.17;100.00;100937.28;5074774;28;20491;-57
2022/12/28 07:18:43;;;;;;;9.40;4.80;;;;;;;7.17;100.00;100924.22;5071777;28;20076;-56
2022/12/28 07:21:14;;;;;;;7.70;4.30;;;;;;;7.18;100.00;100926.75;5071246;28;20045;-57
2022/12/28 07:23:42;;;;;;;6.97;4.03;;;;;;;7.21;100.00;100926.63;5074443;28;20048;-56
2022/12/28 07:26:12;;;;;;;7.90;4.15;;;;;;;7.21;100.00;100929.22;5074414;28;20075;-55
2022/12/28 07:28:44;;;;;;;9.77;4.55;;;;;;;7.25;100.00;100933.38;5071999;28;20056;-56
2022/12/28 07:31:16;;;;;;;8.57;3.88;;;;;;;7.25;100.00;100928.16;5069369;28;20066;-56
2022/12/28 07:33:45;;;;;;;8.57;3.90;;;;;;;7.25;100.00;100929.91;5071885;28;20040;-56
2022/12/28 07:36:16;;;;;;;7.75;3.80;;;;;;;7.25;100.00;100928.16;5070793;28;20506;-56
2022/12/28 07:38:44;;;;;;;9.60;4.07;;;;;;;7.23;100.00;100930.00;5071912;28;20067;-56
2022/12/28 07:41:17;;;;;;;6.82;4.50;;;;;;;7.26;100.00;100939.47;5072982;28;20048;-56
2022/12/28 07:43:46;;;;;;;10.18;4.60;;;;;;;7.28;100.00;100928.00;5074112;28;20049;-56
2022/12/28 07:46:18;;;;;;;7.95;4.43;;;;;;;7.33;100.00;100924.31;5069390;28;20500;-57
2022/12/28 07:48:46;;;;;;;8.35;4.63;;;;;;;7.37;100.00;100936.31;5071648;28;20044;-55
2022/12/28 07:51:17;;;;;;;6.68;4.30;;;;;;;7.35;100.00;100935.53;5074207;28;20522;-54
2022/12/28 07:53:47;;;;;;;8.88;4.43;;;;;;;7.36;100.00;100934.59;5071991;28;20052;-55
2022/12/28 07:56:15;;;;;;;9.68;4.35;;;;;;;7.37;100.00;100931.91;5069489;28;20044;-55
2022/12/28 07:58:48;;;;;;;8.85;4.63;;;;;;;7.40;100.00;100933.53;5072673;28;20044;-55
2022/12/28 08:01:18;;;;;;;6.75;4.00;;;;;;;7.40;100.00;100937.00;5073775;28;20032;-55
2022/12/28 08:03:46;;;;;;;6.80;4.35;;;;;;;7.45;100.00;100931.53;5073708;28;20044;-54
2022/12/28 08:06:18;;;;;;;11.80;5.13;;;;;;;7.44;100.00;100945.53;5071706;28;20495;-55
2022/12/28 08:08:48;;;;;;;9.65;4.32;;;;;;;7.46;100.00;100928.00;5102623;28;20052;-55
2022/12/28 08:11:18;;;;;;;6.72;4.32;;;;;;;7.46;100.00;100941.09;5073353;28;20045;-56
2022/12/28 08:13:48;;;;;;;8.50;4.63;;;;;;;7.44;100.00;100938.53;5073767;28;20102;-56
2022/12/28 08:16:20;;;;;;;7.78;4.53;;;;;;;7.47;100.00;100944.53;5073310;28;20040;-55
2022/12/28 08:18:49;;;;;;;9.82;4.95;;;;;;;7.50;100.00;100937.38;5073393;28;20094;-55
2022/12/28 08:21:19;;;;;;;12.20;5.13;;;;;;;7.49;100.00;100930.44;5073274;28;20106;-55
2022/12/28 08:23:47;;;;;;;11.07;5.25;;;;;;;7.49;100.00;100927.00;5072579;28;20556;-54
2022/12/28 08:26:17;;;;;;;8.07;5.00;;;;;;;7.48;100.00;100931.38;5069870;28;20474;-55
2022/12/28 08:28:48;;;;;;;9.70;5.22;;;;;;;7.51;100.00;100933.84;5070010;28;20503;-55
2022/12/28 08:31:19;;;;;;;9.05;5.00;;;;;;;7.54;100.00;100938.91;5072910;28;20541;-55
2022/12/28 08:33:48;;;;;;;9.07;5.88;;;;;;;7.51;100.00;100927.75;5071914;28;20053;-56
2022/12/28 08:36:17;;;;;;;10.45;5.43;;;;;;;7.50;100.00;100929.53;5070293;28;20491;-56
2022/12/28 08:38:46;;;;;;;10.98;5.30;;;;;;;7.54;100.00;100928.44;5070821;28;20702;-56
2022/12/28 08:41:15;;;;;;;7.82;4.38;;;;;;;7.62;100.00;100938.50;5073048;28;20053;-56
2022/12/28 08:43:44;;;;;;;9.63;4.75;;;;;;;7.60;100.00;100928.13;5072556;28;20572;-56
2022/12/28 08:46:15;;;;;;;6.50;4.28;;;;;;;7.61;100.00;100934.22;5069544;28;20052;-56
2022/12/28 08:48:46;;;;;;;7.70;4.32;;;;;;;7.64;100.00;100941.06;5069274;28;20128;-56
2022/12/28 08:51:16;;;;;;;10.60;4.20;;;;;;;7.63;100.00;100939.38;5072750;28;20499;-56
2022/12/28 08:53:45;;;;;;;8.02;4.43;;;;;;;7.65;100.00;100942.75;5071510;28;20055;-56
2022/12/28 08:56:16;;;;;;;6.78;4.13;;;;;;;7.67;100.00;100933.06;5069345;28;20044;-56
2022/12/28 08:58:45;;;;;;;10.23;4.45;;;;;;;7.69;100.00;100936.44;5071187;28;20048;-55
2022/12/28 09:01:15;;;;;;;10.23;4.13;;;;;;;7.66;100.00;100940.03;5072756;28;20044;-56
2022/12/28 09:03:47;;;;;;;8.32;4.13;;;;;;;7.65;100.00;100942.75;5072557;28;20044;-56
2022/12/28 09:06:17;;;;;;;8.88;4.40;;;;;;;7.65;100.00;100945.38;5072550;28;20120;-56
2022/12/28 09:08:48;;;;;;;7.53;4.03;;;;;;;7.70;100.00;100938.13;5072600;28;20044;-55
2022/12/28 09:11:33;;;;;;;8.27;4.10;;;;;;;7.69;100.00;100947.75;5072520;28;20052;-55
2022/12/28 09:14:02;;;;;;;7.75;3.67;;;;;;;7.72;100.00;100944.97;5072487;28;20055;-55
2022/12/28 09:16:30;;;;;;;6.07;3.83;;;;;;;7.67;100.00;100943.53;5072473;28;20047;-55
2022/12/28 09:19:01;;;;;;;6.60;3.20;;;;;;;7.71;100.00;100947.69;5072393;28;20049;-55
2022/12/28 09:21:32;;;;;;;7.00;3.70;;;;;;;7.67;100.00;100951.38;5072341;28;20048;-55
2022/12/28 09:24:00;;;;;;;6.75;3.47;;;;;;;7.67;100.00;100941.75;5071152;28;20041;-55
2022/12/28 09:26:30;;;;;;;8.25;3.80;;;;;;;7.69;100.00;100941.66;5070424;28;20217;-54
2022/12/28 09:29:00;;;;;;;6.22;3.45;;;;;;;7.65;100.00;100940.13;5069240;28;20434;-55
2022/12/28 09:31:30;;;;;;;7.38;3.97;;;;;;;7.64;100.00;100943.69;5070770;28;20555;-55
2022/12/28 09:34:00;;;;;;;7.30;4.50;;;;;;;7.65;100.00;100934.88;5072205;28;20037;-55
2022/12/28 09:36:48;;;;;;;9.45;4.93;;;;;;;7.67;100.00;100940.91;5069014;28;20130;-55
2022/12/28 09:39:19;;;;;;;9.77;4.57;;;;;;;7.69;100.00;100939.03;5069704;28;20056;-50
2022/12/28 09:41:51;;;;;;;10.25;4.57;;;;;;;7.68;100.00;100940.81;5072168;28;20044;-52
2022/12/28 09:44:45;;;;;;;8.97;4.93;;;;;;;7.76;100.00;100932.59;5071996;28;20067;-52
2022/12/28 09:47:29;;;;;;;11.57;4.68;;;;;;;7.76;100.00;100941.28;5071980;28;20048;-52
2022/12/28 09:50:07;;;;;;;8.70;4.93;;;;;;;7.72;100.00;100937.13;5072196;28;20445;-53
2022/12/28 09:52:38;;;;;;;8.88;4.68;;;;;;;7.71;100.00;100932.81;5070134;28;20052;-50
2022/12/28 09:55:15;;;;;;;13.68;5.00;;;;;;;7.74;100.00;100943.16;5068823;28;20495;-53
2022/12/28 09:57:46;;;;;;;8.23;4.70;;;;;;;7.74;100.00;100937.03;5071795;28;20467;-57
2022/12/28 10:00:18;;;;;;;9.63;4.72;;;;;;;7.73;100.00;100933.59;5075549;28;20503;-49
2022/12/28 10:02:51;;;;;;;10.02;4.45;;;;;;;7.73;100.00;100928.34;5075333;28;20135;-51
2022/12/28 10:05:22;;;;;;;9.88;4.75;;;;;;;7.75;100.00;100929.09;5075626;28;20053;-52
2022/12/28 10:07:52;;;;;;;8.48;4.47;;;;;;;7.76;100.00;100929.97;5075093;28;20044;-52
2022/12/28 10:10:23;;;;;;;8.35;4.20;;;;;;;7.77;100.00;100926.41;5075050;28;20559;-53
2022/12/28 10:12:52;;;;;;;7.38;4.10;;;;;;;7.81;100.00;100922.69;5070997;28;20045;-52
2022/12/28 10:15:22;;;;;;;12.55;4.75;;;;;;;7.77;100.00;100923.78;5073288;28;20070;-51
2022/12/28 10:17:53;;;;;;;7.78;3.80;;;;;;;7.77;100.00;100919.41;5075220;28;20036;-53
2022/12/28 10:20:23;;;;;;;7.22;3.97;;;;;;;7.81;100.00;100914.84;5075454;28;20049;-53
2022/12/28 10:22:55;;;;;;;9.52;4.03;;;;;;;7.79;100.00;100914.09;5075251;28;20060;-56
2022/12/28 10:25:26;;;;;;;7.70;3.50;;;;;;;7.80;100.00;100910.56;5075418;28;20059;-57
2022/12/28 10:27:55;;;;;;;6.70;3.67;;;;;;;7.82;100.00;100908.69;5073042;28;20560;-53
2022/12/28 10:30:27;;;;;;;7.32;3.72;;;;;;;7.82;100.00;100906.06;5070843;28;20576;-54
2022/12/28 10:32:57;;;;;;;10.40;3.83;;;;;;;7.83;100.00;100907.78;5073864;28;20552;-52
2022/12/28 10:35:38;;;;;;;6.00;3.33;;;;;;;7.84;100.00;100900.75;5074795;28;20119;-53
2022/12/28 10:38:19;;;;;;;11.38;4.25;;;;;;;7.81;100.00;100904.38;5073598;28;20047;-51
2022/12/28 10:40:58;;;;;;;7.28;4.43;;;;;;;7.84;100.00;100898.13;5071219;28;20402;-51
2022/12/28 10:43:30;;;;;;;8.60;3.80;;;;;;;7.86;100.00;100893.66;5074620;28;20125;-54
2022/12/28 10:46:00;;;;;;;6.80;3.50;;;;;;;7.90;100.00;100896.03;5073566;28;20056;-55
2022/12/28 10:48:30;;;;;;;8.38;3.92;;;;;;;7.92;100.00;100882.84;5075133;28;20048;-55
2022/12/28 10:51:11;;;;;;;9.48;3.90;;;;;;;7.94;100.00;100892.31;5073180;28;20044;-57
2022/12/28 10:53:43;;;;;;;9.15;4.05;;;;;;;7.95;100.00;100891.41;5071991;28;20051;-56
2022/12/28 10:56:22;;;;;;;9.73;3.80;;;;;;;7.95;100.00;100880.94;5074290;28;20487;-56
2022/12/28 10:58:51;;;;;;;6.88;3.50;;;;;;;7.96;100.00;100879.13;5074478;28;20115;-56
2022/12/28 11:01:26;;;;;;;6.00;2.88;;;;;;;8.01;100.00;100885.00;5072126;28;20064;-56
2022/12/28 11:04:05;;;;;;;6.15;3.00;;;;;;;8.01;100.00;100873.69;5072549;28;20433;-56
2022/12/28 11:06:36;;;;;;;9.07;3.47;;;;;;;8.00;100.00;100874.59;5074639;28;20045;-56
2022/12/28 11:09:14;;;;;;;6.85;3.17;;;;;;;8.02;100.00;100875.38;5074716;28;20037;-58
2022/12/28 11:11:45;;;;;;;11.50;3.30;;;;;;;8.00;100.00;100870.19;5072576;28;20036;-56
2022/12/28 11:14:22;;;;;;;6.72;2.60;;;;;;;7.99;100.00;100865.03;5070954;28;20087;-57
2022/12/28 11:16:51;;;;;;;6.43;2.45;;;;;;;8.00;100.00;100862.34;5073624;28;20044;-56
2022/12/28 11:19:20;;;;;;;5.68;2.58;;;;;;;8.03;100.00;100861.31;5074584;28;20072;-56
2022/12/28 11:21:51;;;;;;;6.65;2.42;;;;;;;8.02;100.00;100855.25;5073505;28;20554;-56
2022/12/28 11:24:27;;;;;;;5.03;2.35;;;;;;;8.07;100.00;100858.47;5072031;28;20040;-55
2022/12/28 11:26:58;;;;;;;5.80;2.58;;;;;;;8.00;100.00;100836.16;5073557;28;20098;-56
2022/12/28 11:29:27;;;;;;;5.40;2.40;;;;;;;8.09;100.00;100842.66;5074251;28;20052;-53
2022/12/28 11:32:01;;;;;;;4.57;2.22;;;;;;;8.05;100.00;100815.78;5074115;28;20131;-49
2022/12/28 11:34:31;;;;;;;3.65;1.92;;;;;;;8.05;100.00;100833.28;5074215;28;20048;-49
2022/12/28 11:37:01;;;;;;;3.85;2.20;;;;;;;8.07;100.00;100831.41;5073729;28;21224;-51
2022/12/28 11:39:32;;;;;;;4.10;2.20;;;;;;;8.08;100.00;100827.88;5074101;28;20064;-50
2022/12/28 11:42:01;;;;;;;3.88;2.25;;;;;;;8.08;100.00;100830.50;5073874;28;20053;-54
2022/12/28 11:44:52;;;;;;;4.15;2.28;;;;;;;8.09;100.00;100819.94;5073676;28;20088;-53
2022/12/28 11:47:31;;;;;;;4.75;1.90;;;;;;;8.10;100.00;100815.56;5073951;28;20098;-53
2022/12/28 11:50:33;;;;;;;3.25;1.90;;;;;;;8.13;100.00;100818.81;5073790;28;20052;-53
2022/12/28 11:53:05;;;;;;;4.85;2.40;;;;;;;8.15;100.00;100813.50;5056717;28;20049;-51
2022/12/28 11:55:58;;;;;;;5.03;2.00;;;;;;;8.15;100.00;100804.81;5070267;28;20106;-52
2022/12/28 11:59:14;;;;;;;4.97;2.05;;;;;;;8.15;100.00;100804.81;5068288;28;20049;-51
2022/12/28 12:01:47;;;;;;;4.10;2.03;;;;;;;8.15;100.00;100799.56;5072288;28;20438;-53
2022/12/28 12:04:41;;;;;;;4.05;2.65;;;;;;;8.13;100.00;100804.91;5070935;28;20419;-54
2022/12/28 12:07:20;;;;;;;4.00;2.15;;;;;;;8.16;100.00;100796.03;5070267;28;20127;-54
2022/12/28 12:10:40;;;;;;;4.95;1.98;;;;;;;8.15;100.00;100796.94;5073497;28;20055;-53
2022/12/28 12:13:42;;;;;;;3.90;2.00;;;;;;;8.13;100.00;100795.25;5031196;28;20132;-53
2022/12/28 12:16:21;;;;;;;5.13;2.20;;;;;;;8.15;100.00;100792.53;5073321;28;20642;-50